Time;durP1;ratioP1;P1;durP2;ratioP2;P2;SDS_P1;SDS_P2;PMS_P1;PMS_P2;Temp;Humidity;BMP_temperature;BMP_pressure;BME280_temperature;BME280_humidity;BME280_pressure;Samples;Min_cycle;Max_cycle;Signal;HPM_P1;HPM_P2
2022/11/21 00:01:50;;;;;;;;;;;6.00;89.40;;;;;;5032674;28;19925;-79
2022/11/21 00:04:15;;;;;;;;;;;6.00;89.30;;;;;;5047668;28;19962;-77
2022/11/21 00:06:41;;;;;;;;;;;6.00;89.30;;;;;;5038828;28;19958;-77
2022/11/21 00:09:06;;;;;;;;;;;6.00;89.30;;;;;;5050256;28;19952;-77
2022/11/21 00:11:32;;;;;;;;;;;6.10;89.40;;;;;;5048020;28;19922;-78
2022/11/21 00:13:57;;;;;;;;;;;6.10;89.30;;;;;;5048865;28;19924;-78
2022/11/21 00:16:23;;;;;;;;;;;6.10;89.30;;;;;;5066304;28;21255;-77
2022/11/21 00:18:48;;;;;;;;;;;6.10;89.30;;;;;;5056085;28;19916;-78
2022/11/21 00:21:14;;;;;;;;;;;6.10;89.20;;;;;;5072736;28;19904;-77
2022/11/21 00:23:40;;;;;;;;;;;6.10;89.30;;;;;;5035756;28;19959;-76
2022/11/21 00:26:06;;;;;;;;;;;6.10;89.30;;;;;;5047847;28;19917;-78
2022/11/21 00:28:31;;;;;;;;;;;6.20;89.30;;;;;;5049464;28;19927;-78
2022/11/21 00:30:57;;;;;;;;;;;6.20;89.30;;;;;;5047514;28;19924;-78
2022/11/21 00:33:22;;;;;;;;;;;6.20;89.30;;;;;;5048340;28;19999;-78
2022/11/21 00:35:48;;;;;;;;;;;6.20;89.30;;;;;;5062362;28;19917;-78
2022/11/21 00:38:14;;;;;;;;;;;6.20;89.30;;;;;;5044666;28;19989;-78
2022/11/21 00:40:41;;;;;;;;;;;6.30;89.30;;;;;;5031812;28;20563;-78
2022/11/21 00:43:06;;;;;;;;;;;6.30;89.20;;;;;;5047844;28;19966;-78
2022/11/21 00:45:32;;;;;;;;;;;6.30;89.20;;;;;;5045526;28;19920;-77
2022/11/21 00:47:57;;;;;;;;;;;6.30;89.20;;;;;;5048483;28;19921;-78
2022/11/21 00:50:23;;;;;;;;;;;6.30;89.20;;;;;;5039599;28;19954;-78
2022/11/21 00:52:48;;;;;;;;;;;6.30;89.20;;;;;;5065538;28;19920;-78
2022/11/21 00:55:14;;;;;;;;;;;6.30;89.10;;;;;;5045734;28;19976;-78
2022/11/21 00:57:39;;;;;;;;;;;6.30;89.20;;;;;;5048325;28;20318;-77
2022/11/21 01:00:05;;;;;;;;;;;6.30;89.20;;;;;;5035772;28;19924;-79
2022/11/21 01:02:31;;;;;;;;;;;6.30;89.20;;;;;;5060341;28;20016;-78
2022/11/21 01:04:56;;;;;;;;;;;6.30;89.10;;;;;;5031242;28;19921;-78
2022/11/21 01:07:22;;;;;;;;;;;6.30;89.10;;;;;;5029049;28;19929;-78
2022/11/21 01:09:47;;;;;;;;;;;6.30;89.10;;;;;;5032656;28;19978;-79
2022/11/21 01:12:13;;;;;;;;;;;6.30;89.10;;;;;;5033332;28;19922;-78
2022/11/21 01:14:38;;;;;;;;;;;6.40;89.20;;;;;;5035296;28;20015;-77
2022/11/21 01:17:04;;;;;;;;;;;6.30;89.10;;;;;;5047531;28;19959;-78
2022/11/21 01:19:29;;;;;;;;;;;6.30;89.10;;;;;;5029297;28;20296;-78
2022/11/21 01:21:55;;;;;;;;;;;6.40;89.20;;;;;;5028086;28;19923;-78
2022/11/21 01:24:20;;;;;;;;;;;6.40;89.20;;;;;;5044622;28;19920;-78
2022/11/21 01:26:47;;;;;;;;;;;6.40;89.10;;;;;;5059706;28;19920;-78
2022/11/21 01:29:13;;;;;;;;;;;6.40;89.10;;;;;;5029024;28;19927;-78
2022/11/21 01:31:39;;;;;;;;;;;6.40;89.10;;;;;;5018306;28;19921;-77
2022/11/21 01:34:04;;;;;;;;;;;6.40;89.10;;;;;;5045772;28;20324;-78
2022/11/21 01:36:30;;;;;;;;;;;6.40;89.10;;;;;;5045328;28;19980;-78
2022/11/21 01:38:56;;;;;;;;;;;6.40;89.20;;;;;;5062066;28;20304;-78
2022/11/21 01:41:30;;;;;;;;;;;6.40;89.10;;;;;;5035388;28;19917;-77
2022/11/21 01:43:56;;;;;;;;;;;6.40;89.10;;;;;;5057976;28;19924;-78
2022/11/21 01:46:22;;;;;;;;;;;6.40;89.10;;;;;;5061082;28;19916;-77
2022/11/21 01:48:54;;;;;;;;;;;6.40;89.10;;;;;;5060842;28;19943;-78
2022/11/21 01:51:22;;;;;;;;;;;6.40;89.20;;;;;;5058971;28;19925;-77
2022/11/21 01:53:50;;;;;;;;;;;6.40;89.10;;;;;;5032188;28;19920;-78
2022/11/21 01:56:16;;;;;;;;;;;6.40;89.10;;;;;;5043551;28;19917;-78
2022/11/21 01:58:41;;;;;;;;;;;6.40;89.10;;;;;;5042066;28;19916;-77
2022/11/21 02:01:07;;;;;;;;;;;6.40;89.10;;;;;;5045226;28;19956;-77
2022/11/21 02:03:33;;;;;;;;;;;6.50;89.20;;;;;;5023891;28;19931;-78
2022/11/21 02:05:58;;;;;;;;;;;6.40;89.20;;;;;;5043459;28;19932;-78
2022/11/21 02:08:24;;;;;;;;;;;6.40;89.10;;;;;;5025234;28;19923;-78
2022/11/21 02:10:55;;;;;;;;;;;6.50;89.20;;;;;;5025895;28;19924;-78
2022/11/21 02:13:21;;;;;;;;;;;6.50;89.20;;;;;;5023881;28;20412;-78
2022/11/21 02:15:47;;;;;;;;;;;6.50;89.20;;;;;;5040957;28;19947;-78
2022/11/21 02:18:12;;;;;;;;;;;6.50;89.20;;;;;;5061697;28;20451;-77
2022/11/21 02:20:37;;;;;;;;;;;6.50;89.20;;;;;;5045487;28;19921;-78
2022/11/21 02:23:23;;;;;;;;;;;6.50;89.10;;;;;;5043500;28;19995;-77
2022/11/21 02:25:50;;;;;;;;;;;6.50;89.20;;;;;;5045633;28;19931;-77
2022/11/21 02:28:15;;;;;;;;;;;6.50;89.10;;;;;;5044708;28;19920;-78
2022/11/21 02:30:41;;;;;;;;;;;6.50;89.10;;;;;;5042584;28;19916;-77
2022/11/21 02:33:07;;;;;;;;;;;6.60;89.20;;;;;;5043001;28;19916;-78
2022/11/21 02:35:35;;;;;;;;;;;6.50;89.10;;;;;;5032175;28;19970;-78
2022/11/21 02:38:06;;;;;;;;;;;6.50;89.10;;;;;;5042389;28;19920;-78
2022/11/21 02:40:35;;;;;;;;;;;6.50;89.10;;;;;;5043144;28;20380;-78
2022/11/21 02:43:00;;;;;;;;;;;6.60;89.10;;;;;;5060092;28;19939;-79
2022/11/21 02:45:28;;;;;;;;;;;6.60;89.10;;;;;;5042104;28;20610;-78
2022/11/21 02:47:55;;;;;;;;;;;6.60;89.20;;;;;;5044880;28;20000;-78
2022/11/21 02:50:27;;;;;;;;;;;6.60;89.10;;;;;;5059198;28;21491;-78
2022/11/21 02:52:54;;;;;;;;;;;6.60;89.10;;;;;;5057609;28;19917;-78
2022/11/21 02:55:19;;;;;;;;;;;6.60;89.10;;;;;;5047625;28;19959;-79
2022/11/21 02:57:45;;;;;;;;;;;6.60;89.20;;;;;;5037872;28;20368;-78
2022/11/21 03:00:16;;;;;;;;;;;6.60;89.10;;;;;;5057517;28;19923;-79
2022/11/21 03:02:42;;;;;;;;;;;6.60;89.10;;;;;;5057772;28;20296;-78
2022/11/21 03:05:08;;;;;;;;;;;6.60;89.10;;;;;;5032663;28;19920;-78
2022/11/21 03:07:33;;;;;;;;;;;6.60;89.10;;;;;;5026829;28;19924;-78
2022/11/21 03:09:59;;;;;;;;;;;6.60;89.10;;;;;;5054588;28;19924;-78
2022/11/21 03:12:24;;;;;;;;;;;6.60;89.20;;;;;;5057743;28;19924;-78
2022/11/21 03:14:50;;;;;;;;;;;6.60;89.10;;;;;;5041629;28;20373;-79
2022/11/21 03:17:15;;;;;;;;;;;6.60;89.20;;;;;;5010260;28;19916;-78
2022/11/21 03:19:41;;;;;;;;;;;6.60;89.10;;;;;;5033539;28;19924;-78
2022/11/21 03:22:06;;;;;;;;;;;6.60;89.20;;;;;;5058984;28;20324;-78
2022/11/21 03:24:32;;;;;;;;;;;6.60;89.20;;;;;;5040638;28;19920;-78
2022/11/21 03:26:57;;;;;;;;;;;6.60;89.20;;;;;;5047656;28;20308;-78
2022/11/21 03:29:23;;;;;;;;;;;6.60;89.10;;;;;;5058526;28;19928;-78
2022/11/21 03:31:48;;;;;;;;;;;6.60;89.10;;;;;;5058383;28;20011;-78
2022/11/21 03:34:14;;;;;;;;;;;6.70;89.20;;;;;;5056498;28;19928;-78
2022/11/21 03:36:39;;;;;;;;;;;6.70;89.20;;;;;;5040802;28;20363;-77
2022/11/21 03:39:05;;;;;;;;;;;6.70;89.10;;;;;;5044780;28;19921;-78
2022/11/21 03:41:30;;;;;;;;;;;6.70;89.00;;;;;;5056528;28;19928;-78
2022/11/21 03:43:56;;;;;;;;;;;6.70;89.00;;;;;;5059314;28;19927;-77
2022/11/21 03:46:22;;;;;;;;;;;6.70;89.00;;;;;;5056299;28;20322;-78
2022/11/21 03:48:47;;;;;;;;;;;6.80;89.10;;;;;;5047621;28;19927;-77
2022/11/21 03:51:13;;;;;;;;;;;6.70;89.00;;;;;;5044192;28;19928;-78
2022/11/21 03:53:38;;;;;;;;;;;6.70;89.00;;;;;;5044662;28;19923;-76
2022/11/21 03:56:04;;;;;;;;;;;6.80;89.10;;;;;;5047992;28;19935;-78
2022/11/21 03:58:30;;;;;;;;;;;6.80;89.10;;;;;;5027503;28;19924;-78
2022/11/21 04:00:55;;;;;;;;;;;6.80;89.10;;;;;;5038126;28;19950;-78
2022/11/21 04:03:21;;;;;;;;;;;6.80;89.00;;;;;;5026049;28;19942;-78
2022/11/21 04:05:46;;;;;;;;;;;6.80;89.00;;;;;;5044847;28;19936;-78
2022/11/21 04:08:12;;;;;;;;;;;6.80;89.00;;;;;;5044538;28;19956;-78
2022/11/21 04:10:37;;;;;;;;;;;6.80;89.00;;;;;;5050752;28;19916;-78
2022/11/21 04:13:03;;;;;;;;;;;6.80;89.00;;;;;;5046802;28;20354;-77
2022/11/21 04:15:28;;;;;;;;;;;6.80;88.90;;;;;;5045536;28;20449;-78
2022/11/21 04:17:53;;;;;;;;;;;6.80;89.70;;;;;;5046340;28;19924;-78
2022/11/21 04:20:19;;;;;;;;;;;6.90;88.90;;;;;;5039353;28;19928;-78
2022/11/21 04:22:44;;;;;;;;;;;6.90;88.90;;;;;;5062279;28;19920;-77
2022/11/21 04:25:10;;;;;;;;;;;6.90;89.00;;;;;;5042921;28;19935;-77
2022/11/21 04:27:35;;;;;;;;;;;6.90;88.90;;;;;;5048631;28;19919;-78
2022/11/21 04:30:01;;;;;;;;;;;6.90;88.90;;;;;;5029315;28;19957;-78
2022/11/21 04:32:27;;;;;;;;;;;6.90;88.90;;;;;;5018173;28;19924;-78
2022/11/21 04:34:52;;;;;;;;;;;6.90;88.90;;;;;;5030242;28;20394;-79
2022/11/21 04:37:18;;;;;;;;;;;7.00;88.90;;;;;;5029050;28;19923;-78
2022/11/21 04:39:43;;;;;;;;;;;6.90;88.80;;;;;;5063274;28;19931;-77
2022/11/21 04:42:09;;;;;;;;;;;7.00;88.80;;;;;;5026483;28;19923;-78
2022/11/21 04:44:34;;;;;;;;;;;7.00;88.80;;;;;;5061614;28;19924;-78
2022/11/21 04:47:00;;;;;;;;;;;6.90;88.80;;;;;;5061312;28;19926;-78
2022/11/21 04:49:25;;;;;;;;;;;7.00;88.80;;;;;;5058037;28;19924;-78
2022/11/21 04:51:51;;;;;;;;;;;7.00;88.80;;;;;;5053878;28;19920;-78
2022/11/21 04:54:16;;;;;;;;;;;7.00;88.80;;;;;;4992924;28;19932;-77
2022/11/21 04:56:41;;;;;;;;;;;7.00;88.80;;;;;;5044772;28;19912;-77
2022/11/21 04:59:07;;;;;;;;;;;7.00;88.80;;;;;;5030355;28;19921;-77
2022/11/21 05:01:33;;;;;;;;;;;7.00;88.80;;;;;;5063942;28;19978;-78
2022/11/21 05:03:58;;;;;;;;;;;7.00;89.60;;;;;;5058963;28;20537;-78
2022/11/21 05:06:24;;;;;;;;;;;7.00;88.80;;;;;;5030775;28;19952;-78
2022/11/21 05:08:49;;;;;;;;;;;7.00;88.80;;;;;;5044894;28;20440;-78
2022/11/21 05:13:59;;;;;;;;;;;7.00;88.80;;;;;;5035485;28;19970;-78
2022/11/21 05:16:25;;;;;;;;;;;7.00;88.80;;;;;;5027039;28;19935;-77
2022/11/21 05:18:50;;;;;;;;;;;7.00;88.80;;;;;;5062387;28;19924;-78
2022/11/21 05:21:15;;;;;;;;;;;7.00;88.80;;;;;;5062229;28;19951;-77
2022/11/21 05:23:41;;;;;;;;;;;7.00;88.80;;;;;;5049785;28;20011;-78
2022/11/21 05:26:07;;;;;;;;;;;7.00;88.80;;;;;;5014242;28;19928;-76
2022/11/21 05:28:32;;;;;;;;;;;7.00;88.80;;;;;;5061470;28;19921;-78
2022/11/21 05:30:58;;;;;;;;;;;7.00;88.80;;;;;;5058834;28;19924;-78
2022/11/21 05:33:23;;;;;;;;;;;7.00;88.80;;;;;;5034096;28;19917;-78
2022/11/21 05:35:48;;;;;;;;;;;7.00;88.80;;;;;;5000307;28;19918;-78
2022/11/21 05:38:14;;;;;;;;;;;7.00;88.70;;;;;;5023148;28;19912;-78
2022/11/21 05:40:39;;;;;;;;;;;7.00;88.80;;;;;;5064343;28;20297;-77
2022/11/21 05:45:49;;;;;;;;;;;7.00;88.70;;;;;;5039384;28;19963;-78
2022/11/21 05:48:15;;;;;;;;;;;7.00;88.70;;;;;;5033209;28;19960;-78
2022/11/21 05:50:40;;;;;;;;;;;6.90;88.70;;;;;;5061136;28;19920;-77
2022/11/21 05:53:06;;;;;;;;;;;6.90;88.70;;;;;;5062250;28;19952;-77
2022/11/21 05:55:34;;;;;;;;;;;6.90;88.70;;;;;;5036020;28;19959;-78
2022/11/21 05:58:00;;;;;;;;;;;6.90;88.70;;;;;;5022159;28;19960;-77
2022/11/21 06:00:26;;;;;;;;;;;6.90;88.70;;;;;;5039938;28;20357;-78
2022/11/21 06:05:35;;;;;;;;;;;6.90;88.80;;;;;;5036164;28;20693;-76
2022/11/21 06:08:01;;;;;;;;;;;6.90;88.80;;;;;;5018309;28;19916;-78
2022/11/21 06:10:26;;;;;;;;;;;6.90;88.80;;;;;;5041084;28;19917;-78
2022/11/21 06:12:52;;;;;;;;;;;6.90;88.80;;;;;;5060196;28;19924;-77
2022/11/21 06:15:17;;;;;;;;;;;6.90;88.80;;;;;;5043390;28;19921;-78
2022/11/21 06:17:43;;;;;;;;;;;6.90;88.80;;;;;;5038965;28;19943;-77
2022/11/21 06:20:08;;;;;;;;;;;6.80;88.80;;;;;;5061143;28;19928;-77
2022/11/21 06:22:34;;;;;;;;;;;6.80;88.80;;;;;;5064023;28;19913;-77
2022/11/21 06:25:00;;;;;;;;;;;6.90;88.80;;;;;;5027929;28;19927;-78
2022/11/21 06:27:25;;;;;;;;;;;6.80;88.70;;;;;;5046990;28;19920;-74
2022/11/21 06:29:51;;;;;;;;;;;6.80;88.70;;;;;;5039209;28;20394;-76
2022/11/21 06:32:16;;;;;;;;;;;6.80;88.70;;;;;;5072365;28;19919;-77
2022/11/21 06:34:42;;;;;;;;;;;6.80;88.80;;;;;;5073503;28;19924;-77
2022/11/21 06:37:07;;;;;;;;;;;6.80;88.80;;;;;;5053506;28;19913;-76
2022/11/21 06:39:33;;;;;;;;;;;6.80;88.80;;;;;;5045010;28;19917;-76
2022/11/21 06:41:58;;;;;;;;;;;6.80;88.80;;;;;;5051809;28;20848;-77
2022/11/21 06:44:24;;;;;;;;;;;6.80;88.80;;;;;;5051839;28;19936;-78
2022/11/21 06:46:49;;;;;;;;;;;6.80;88.80;;;;;;5053401;28;19945;-77
2022/11/21 06:49:15;;;;;;;;;;;6.80;88.80;;;;;;5049785;28;19921;-78
2022/11/21 06:51:40;;;;;;;;;;;6.80;88.80;;;;;;5071998;28;19924;-76
2022/11/21 06:54:06;;;;;;;;;;;6.80;88.80;;;;;;5069979;28;19970;-78
2022/11/21 06:56:31;;;;;;;;;;;6.80;88.80;;;;;;5064148;28;19934;-78
2022/11/21 06:58:57;;;;;;;;;;;6.80;88.80;;;;;;5045238;28;19988;-77
2022/11/21 07:01:22;;;;;;;;;;;6.80;88.80;;;;;;5042874;28;19917;-77
2022/11/21 07:03:48;;;;;;;;;;;6.80;88.80;;;;;;5034898;28;19958;-76
2022/11/21 07:06:13;;;;;;;;;;;6.80;88.80;;;;;;5051955;28;19948;-78
2022/11/21 07:08:41;;;;;;;;;;;6.80;88.80;;;;;;5047061;28;19917;-76
2022/11/21 07:11:08;;;;;;;;;;;6.80;88.80;;;;;;5040090;28;19916;-77
2022/11/21 07:13:33;;;;;;;;;;;6.80;88.80;;;;;;5050287;28;19917;-76
2022/11/21 07:16:00;;;;;;;;;;;6.80;88.80;;;;;;5050826;28;19932;-77
2022/11/21 07:18:25;;;;;;;;;;;6.80;88.80;;;;;;5047838;28;19925;-77
2022/11/21 07:20:51;;;;;;;;;;;6.80;88.80;;;;;;5029318;28;19927;-78
2022/11/21 07:23:16;;;;;;;;;;;6.80;88.80;;;;;;5060029;28;20005;-77
2022/11/21 07:25:41;;;;;;;;;;;6.80;88.80;;;;;;5053979;28;19916;-77
2022/11/21 07:28:07;;;;;;;;;;;6.80;88.80;;;;;;5046131;28;19986;-76
2022/11/21 07:30:33;;;;;;;;;;;6.80;88.80;;;;;;5064235;28;19924;-77
2022/11/21 07:32:59;;;;;;;;;;;6.80;88.80;;;;;;5057253;28;19925;-76
2022/11/21 07:35:25;;;;;;;;;;;6.80;88.80;;;;;;5038621;28;19943;-77
2022/11/21 07:37:51;;;;;;;;;;;6.80;88.80;;;;;;5050641;28;19917;-77
2022/11/21 07:40:16;;;;;;;;;;;6.80;88.80;;;;;;5053642;28;20524;-76
2022/11/21 07:42:42;;;;;;;;;;;6.90;88.90;;;;;;5055027;28;19968;-76
2022/11/21 07:45:07;;;;;;;;;;;6.90;88.90;;;;;;5055474;28;19921;-77
2022/11/21 07:47:33;;;;;;;;;;;6.90;88.90;;;;;;5055352;28;19986;-76
2022/11/21 07:49:58;;;;;;;;;;;6.90;88.90;;;;;;5035190;28;20592;-76
2022/11/21 07:52:24;;;;;;;;;;;6.80;88.80;;;;;;5030006;28;19927;-77
2022/11/21 07:54:50;;;;;;;;;;;6.90;88.90;;;;;;5053870;28;19920;-77
2022/11/21 07:57:15;;;;;;;;;;;6.90;88.90;;;;;;5054508;28;20582;-77
2022/11/21 07:59:41;;;;;;;;;;;6.90;88.90;;;;;;5049525;28;19921;-77
2022/11/21 08:02:11;;;;;;;;;;;6.90;88.90;;;;;;5052856;28;19924;-77
2022/11/21 08:04:36;;;;;;;;;;;6.90;88.90;;;;;;5055350;28;19999;-76
2022/11/21 08:07:02;;;;;;;;;;;6.90;88.80;;;;;;5074904;28;19960;-77
2022/11/21 08:09:28;;;;;;;;;;;7.00;88.90;;;;;;5029899;28;20497;-77
2022/11/21 08:11:53;;;;;;;;;;;6.90;88.80;;;;;;5068336;28;19952;-78
2022/11/21 08:14:19;;;;;;;;;;;7.00;88.80;;;;;;5034229;28;19935;-78
2022/11/21 08:16:44;;;;;;;;;;;7.00;88.80;;;;;;5064915;28;19920;-77
2022/11/21 08:19:10;;;;;;;;;;;7.00;88.80;;;;;;5065959;28;19921;-78
2022/11/21 08:21:35;;;;;;;;;;;7.00;88.80;;;;;;5045890;28;19916;-76
2022/11/21 08:24:01;;;;;;;;;;;7.10;88.90;;;;;;5037066;28;19917;-78
2022/11/21 08:26:26;;;;;;;;;;;7.00;88.80;;;;;;5048130;28;19928;-77
2022/11/21 08:28:51;;;;;;;;;;;7.10;88.80;;;;;;5035523;28;19920;-78
2022/11/21 08:31:17;;;;;;;;;;;7.10;88.80;;;;;;5020035;22;19925;-77
2022/11/21 08:33:42;;;;;;;;;;;7.10;88.70;;;;;;5047674;28;19924;-78
2022/11/21 08:36:08;;;;;;;;;;;7.10;88.70;;;;;;5039796;28;19917;-77
2022/11/21 08:38:33;;;;;;;;;;;7.10;88.70;;;;;;5043049;28;19925;-76
2022/11/21 08:43:43;;;;;;;;;;;7.20;88.70;;;;;;5035608;28;19923;-78
2022/11/21 08:46:08;;;;;;;;;;;7.20;88.70;;;;;;5035593;28;20360;-75
2022/11/21 08:48:34;;;;;;;;;;;7.20;88.70;;;;;;5039457;28;19998;-77
2022/11/21 08:50:59;;;;;;;;;;;7.20;88.60;;;;;;5029249;28;19928;-77
2022/11/21 08:53:25;;;;;;;;;;;7.20;88.70;;;;;;5033515;28;19925;-76
2022/11/21 08:55:50;;;;;;;;;;;7.20;88.60;;;;;;5047139;28;19921;-77
2022/11/21 08:58:16;;;;;;;;;;;7.20;88.80;;;;;;5049883;28;20445;-77
2022/11/21 09:00:41;;;;;;;;;;;7.30;88.60;;;;;;5052143;28;19920;-77
2022/11/21 09:03:06;;;;;;;;;;;7.30;88.60;;;;;;5049152;28;19981;-77
2022/11/21 09:05:32;;;;;;;;;;;7.30;88.60;;;;;;5023995;28;19921;-77
2022/11/21 09:07:58;;;;;;;;;;;7.30;89.40;;;;;;5057382;28;20498;-76
2022/11/21 09:10:26;;;;;;;;;;;7.40;88.70;;;;;;5050469;28;19924;-76
2022/11/21 09:12:51;;;;;;;;;;;7.40;88.60;;;;;;5055300;28;19928;-76
2022/11/21 09:18:05;;;;;;;;;;;7.40;88.60;;;;;;5071348;28;19994;-77
2022/11/21 09:20:32;;;;;;;;;;;7.50;88.60;;;;;;5053035;28;19931;-77
2022/11/21 09:23:02;;;;;;;;;;;7.50;89.30;;;;;;5051732;28;19984;-78
2022/11/21 09:25:27;;;;;;;;;;;7.50;88.50;;;;;;5053316;28;19936;-77
2022/11/21 09:27:53;;;;;;;;;;;7.50;88.50;;;;;;5050382;28;19921;-76
2022/11/21 09:30:18;;;;;;;;;;;7.50;88.50;;;;;;5044745;28;19918;-76
2022/11/21 09:32:44;;;;;;;;;;;7.50;88.50;;;;;;5038638;28;19931;-76
2022/11/21 09:35:10;;;;;;;;;;;7.50;88.50;;;;;;5047641;28;19921;-77
2022/11/21 09:37:36;;;;;;;;;;;7.50;88.50;;;;;;5038446;28;19968;-76
2022/11/21 09:40:02;;;;;;;;;;;7.60;88.60;;;;;;5049982;28;19929;-76
2022/11/21 09:42:53;;;;;;;;;;;7.60;88.50;;;;;;5048172;28;19931;-77
2022/11/21 09:45:24;;;;;;;;;;;7.60;88.50;;;;;;5024158;28;19917;-76
2022/11/21 09:47:50;;;;;;;;;;;7.60;88.50;;;;;;5025842;28;20054;-76
2022/11/21 09:50:28;;;;;;;;;;;7.70;88.50;;;;;;5029364;28;19920;-77
2022/11/21 09:53:10;;;;;;;;;;;7.60;88.40;;;;;;5050252;28;20080;-77
2022/11/21 09:55:40;;;;;;;;;;;7.60;88.40;;;;;;5034003;28;19917;-77
2022/11/21 09:58:08;;;;;;;;;;;7.70;88.50;;;;;;5007076;28;19948;-77
2022/11/21 10:00:34;;;;;;;;;;;7.70;88.50;;;;;;5022689;28;19925;-75
2022/11/21 10:02:59;;;;;;;;;;;7.70;88.40;;;;;;5030568;28;20012;-76
2022/11/21 10:05:40;;;;;;;;;;;7.70;88.40;;;;;;5030091;28;19920;-76
2022/11/21 10:08:28;;;;;;;;;;;7.70;88.40;;;;;;5051246;28;19924;-77
2022/11/21 10:10:59;;;;;;;;;;;7.70;88.40;;;;;;5038979;28;20622;-78
2022/11/21 10:13:31;;;;;;;;;;;7.80;89.20;;;;;;5025315;28;19916;-79
2022/11/21 10:16:02;;;;;;;;;;;7.80;88.40;;;;;;5021485;28;19920;-78
2022/11/21 10:18:34;;;;;;;;;;;7.80;88.30;;;;;;5035819;28;19925;-78
2022/11/21 10:21:18;;;;;;;;;;;7.80;88.40;;;;;;4994253;28;19928;-78
2022/11/21 10:24:03;;;;;;;;;;;7.80;88.30;;;;;;5039893;28;19921;-79
2022/11/21 10:26:35;;;;;;;;;;;7.70;88.20;;;;;;5037966;28;19921;-79
2022/11/21 10:29:00;;;;;;;;;;;7.70;88.30;;;;;;5021960;28;19952;-77
2022/11/21 10:31:27;;;;;;;;;;;7.70;88.30;;;;;;5042772;28;20492;-78
2022/11/21 10:33:52;;;;;;;;;;;7.70;88.40;;;;;;5039152;28;19952;-77
2022/11/21 10:36:36;;;;;;;;;;;7.70;88.40;;;;;;5047078;28;19925;-78
2022/11/21 10:39:04;;;;;;;;;;;7.70;88.40;;;;;;5028340;28;20037;-78
2022/11/21 10:41:36;;;;;;;;;;;7.70;88.40;;;;;;5023770;28;19925;-78
2022/11/21 10:46:56;;;;;;;;;;;7.70;88.40;;;;;;5032481;28;19928;-78
2022/11/21 10:49:23;;;;;;;;;;;7.80;88.40;;;;;;5045581;28;19924;-77
2022/11/21 10:52:06;;;;;;;;;;;7.80;89.10;;;;;;5022336;28;20228;-76
2022/11/21 10:54:32;;;;;;;;;;;7.90;88.40;;;;;;5039091;28;20015;-78
2022/11/21 10:57:06;;;;;;;;;;;7.90;88.40;;;;;;5044812;28;19920;-78
2022/11/21 10:59:31;;;;;;;;;;;8.00;88.40;;;;;;5018265;28;20028;-78
2022/11/21 11:01:58;;;;;;;;;;;8.00;88.30;;;;;;5027921;28;19965;-78
2022/11/21 11:04:24;;;;;;;;;;;8.00;89.10;;;;;;5025024;28;20007;-78
2022/11/21 11:06:50;;;;;;;;;;;8.10;88.40;;;;;;5037312;28;19931;-77
2022/11/21 11:09:31;;;;;;;;;;;8.30;88.60;;;;;;5021814;28;19905;-77
2022/11/21 11:12:16;;;;;;;;;;;8.50;88.60;;;;;;5031976;28;19960;-77
2022/11/21 11:14:41;;;;;;;;;;;8.80;88.60;;;;;;5052161;28;19921;-76
2022/11/21 11:17:12;;;;;;;;;;;9.00;88.40;;;;;;5034599;28;20175;-77
2022/11/21 11:19:37;;;;;;;;;;;9.30;88.40;;;;;;5051019;28;19921;-77
2022/11/21 11:22:03;;;;;;;;;;;9.50;88.10;;;;;;5035976;28;19905;-77
2022/11/21 11:24:28;;;;;;;;;;;9.70;87.80;;;;;;5011355;28;19925;-77
2022/11/21 11:26:54;;;;;;;;;;;9.80;87.50;;;;;;5038550;28;20243;-78
2022/11/21 11:29:20;;;;;;;;;;;9.90;87.40;;;;;;5052212;28;20027;-78
2022/11/21 11:31:58;;;;;;;;;;;10.00;87.40;;;;;;5039373;28;20702;-77
2022/11/21 11:34:27;;;;;;;;;;;10.20;87.40;;;;;;5051556;28;19918;-78
2022/11/21 11:36:58;;;;;;;;;;;10.30;87.30;;;;;;5052947;28;20008;-77
2022/11/21 11:39:43;;;;;;;;;;;10.50;87.20;;;;;;5051017;28;19917;-77
2022/11/21 11:48:00;;;;;;;;;;;10.90;86.70;;;;;;5045571;28;20431;-78
2022/11/21 11:50:29;;;;;;;;;;;10.90;86.50;;;;;;5043619;28;19917;-77
2022/11/21 11:53:14;;;;;;;;;;;11.00;86.40;;;;;;5045781;28;19905;-78
2022/11/21 11:55:47;;;;;;;;;;;11.00;86.40;;;;;;5037367;28;19956;-75
2022/11/21 11:58:18;;;;;;;;;;;11.00;86.30;;;;;;5039523;28;19952;-76
2022/11/21 12:00:49;;;;;;;;;;;11.00;86.30;;;;;;5042914;28;20486;-76
2022/11/21 12:03:23;;;;;;;;;;;11.00;86.20;;;;;;5043216;28;19971;-76
2022/11/21 12:06:09;;;;;;;;;;;11.00;86.20;;;;;;5040851;28;19923;-77
2022/11/21 12:08:39;;;;;;;;;;;11.00;86.20;;;;;;5040376;28;19921;-77
2022/11/21 12:13:56;;;;;;;;;;;10.80;86.20;;;;;;5050413;28;19932;-77
2022/11/21 12:16:22;;;;;;;;;;;10.70;86.30;;;;;;5046449;28;19924;-77
2022/11/21 12:18:50;;;;;;;;;;;10.90;86.70;;;;;;5041368;28;19905;-78
2022/11/21 12:21:19;;;;;;;;;;;10.90;86.70;;;;;;5044896;28;20235;-78
2022/11/21 12:23:54;;;;;;;;;;;11.10;86.80;;;;;;5048125;28;19921;-78
2022/11/21 12:26:22;;;;;;;;;;;11.40;86.80;;;;;;5041456;28;19928;-78
2022/11/21 12:28:53;;;;;;;;;;;11.60;86.70;;;;;;5052798;28;19928;-76
2022/11/21 12:31:37;;;;;;;;;;;11.80;86.60;;;;;;5039725;28;19996;-76
2022/11/21 12:34:14;;;;;;;;;;;12.00;86.20;;;;;;5030983;28;19917;-77
2022/11/21 12:36:42;;;;;;;;;;;12.00;85.80;;;;;;5052319;28;20292;-75
2022/11/21 12:39:12;;;;;;;;;;;12.00;85.50;;;;;;5038648;28;20003;-77
2022/11/21 12:44:34;;;;;;;;;;;11.80;85.40;;;;;;5050970;28;20020;-77
2022/11/21 12:47:26;;;;;;;;;;;11.70;85.50;;;;;;5054066;28;19925;-77
2022/11/21 12:55:43;;;;;;;;;;;11.20;85.50;;;;;;5030271;28;19931;-77
2022/11/21 12:58:13;;;;;;;;;;;11.10;85.80;;;;;;5029103;28;19929;-76
2022/11/21 13:00:47;;;;;;;;;;;11.00;85.90;;;;;;5030629;28;19925;-76
2022/11/21 13:03:32;;;;;;;;;;;11.00;86.00;;;;;;5031484;28;19917;-77
2022/11/21 13:05:57;;;;;;;;;;;11.00;85.90;;;;;;5033792;28;19928;-77
2022/11/21 13:08:30;;;;;;;;;;;11.00;85.90;;;;;;5017099;28;19917;-77
2022/11/21 13:11:57;;;;;;;;;;;10.90;85.90;;;;;;5034760;28;19925;-77
2022/11/21 13:13:43;;;;;;;;;;;10.80;85.90;;;;;;5051026;28;19916;-77
2022/11/21 13:16:09;;;;;;;;;;;10.70;86.00;;;;;;5048886;28;19974;-78
2022/11/21 13:18:35;;;;;;;;;;;10.70;86.10;;;;;;5031255;28;20031;-78
2022/11/21 13:21:01;;;;;;;;;;;10.60;86.10;;;;;;5033631;28;19916;-76
2022/11/21 13:23:34;;;;;;;;;;;10.60;86.00;;;;;;5047688;28;20383;-76
2022/11/21 13:25:59;;;;;;;;;;;10.60;86.10;;;;;;5028473;28;19925;-77
2022/11/21 13:28:33;;;;;;;;;;;10.60;86.20;;;;;;5032010;28;19943;-77
2022/11/21 13:30:59;;;;;;;;;;;10.60;86.00;;;;;;5029638;28;19931;-76
2022/11/21 13:33:34;;;;;;;;;;;10.50;86.00;;;;;;5033523;28;19925;-77
2022/11/21 13:36:06;;;;;;;;;;;10.50;86.00;;;;;;5049899;28;19930;-76
2022/11/21 13:38:55;;;;;;;;;;;10.50;86.00;;;;;;5050532;28;19920;-78
2022/11/21 13:44:37;;;;;;;;;;;10.50;86.00;;;;;;5046881;28;20977;-77
2022/11/21 13:47:08;;;;;;;;;;;10.50;86.00;;;;;;5021011;28;19931;-77
2022/11/21 13:49:43;;;;;;;;;;;10.40;85.90;;;;;;5041619;28;20000;-77
2022/11/21 13:52:11;;;;;;;;;;;10.40;85.90;;;;;;5025900;28;19980;-77
2022/11/21 13:55:03;;;;;;;;;;;10.30;85.90;;;;;;5036156;28;19916;-77
2022/11/21 13:57:41;;;;;;;;;;;10.20;86.80;;;;;;5030424;28;19921;-77
2022/11/21 14:00:33;;;;;;;;;;;10.20;86.10;;;;;;5034229;28;19988;-76
2022/11/21 14:03:11;;;;;;;;;;;10.20;86.10;;;;;;5023405;28;19923;-77
2022/11/21 14:05:56;;;;;;;;;;;10.20;86.10;;;;;;5037009;28;19989;-77
2022/11/21 14:08:22;;;;;;;;;;;10.10;86.10;;;;;;5027669;28;19924;-76
2022/11/21 14:10:49;;;;;;;;;;;10.10;86.10;;;;;;5017161;28;19976;-76
2022/11/21 14:13:34;;;;;;;;;;;10.10;86.10;;;;;;5015911;28;19925;-76
2022/11/21 14:16:17;;;;;;;;;;;10.10;86.20;;;;;;5044321;28;19921;-76
2022/11/21 14:18:42;;;;;;;;;;;10.10;86.20;;;;;;5030219;28;19961;-77
2022/11/21 14:21:15;;;;;;;;;;;10.10;86.10;;;;;;5032193;28;21701;-77
2022/11/21 14:23:41;;;;;;;;;;;10.10;86.20;;;;;;5025215;28;20000;-75
2022/11/21 14:26:13;;;;;;;;;;;10.10;86.20;;;;;;5028008;28;19971;-77
2022/11/21 14:28:39;;;;;;;;;;;10.00;86.10;;;;;;5030849;28;19921;-76
2022/11/21 14:31:07;;;;;;;;;;;10.00;86.10;;;;;;5032368;28;19975;-76
2022/11/21 14:33:54;;;;;;;;;;;10.00;86.10;;;;;;5026495;28;19924;-78
2022/11/21 14:36:24;;;;;;;;;;;10.00;86.20;;;;;;5015669;28;19921;-76
2022/11/21 14:38:51;;;;;;;;;;;10.00;86.30;;;;;;5000547;28;19952;-78
2022/11/21 14:41:22;;;;;;;;;;;9.90;86.20;;;;;;5012864;28;19936;-76
2022/11/21 14:43:48;;;;;;;;;;;9.90;86.30;;;;;;5037117;28;19917;-76
2022/11/21 14:46:15;;;;;;;;;;;9.90;86.30;;;;;;5017118;28;19932;-75
2022/11/21 14:48:41;;;;;;;;;;;9.90;86.30;;;;;;5014795;28;19917;-76
2022/11/21 14:51:09;;;;;;;;;;;9.90;86.30;;;;;;5029754;28;19928;-76
2022/11/21 14:53:38;;;;;;;;;;;9.90;86.40;;;;;;5015014;28;19921;-77
2022/11/21 14:56:03;;;;;;;;;;;9.90;86.80;;;;;;5048885;28;19971;-76
2022/11/21 14:58:29;;;;;;;;;;;10.00;87.80;;;;;;5029320;28;19924;-78
2022/11/21 15:01:01;;;;;;;;;;;10.00;86.80;;;;;;5030588;28;19917;-77
2022/11/21 15:03:27;;;;;;;;;;;10.00;86.60;;;;;;5027180;28;20386;-75
2022/11/21 15:06:02;;;;;;;;;;;9.90;86.40;;;;;;5031849;28;19912;-76
2022/11/21 15:08:27;;;;;;;;;;;9.90;86.30;;;;;;5019096;28;19937;-77
2022/11/21 15:10:53;;;;;;;;;;;9.80;86.10;;;;;;5015519;28;19956;-75